Terminal Aerodrome Forecast
Issued by NWS Cleveland, OH

Home | Current Version | Previous Version | Text Only | Print | Product List | Glossary Off
Versions: 1 2 3 4 5 6 7 8 9 10 11 12 13 14 15 16 17 18 19 20 21 22

000
FTUS41 KCLE 291700 RRA
TAFYNG
TAF
KYNG 291746Z 2918/3018 25005KT P6SM SCT045
     FM300000 VRB03KT P6SM SCT200
     FM301000 VRB03KT 4SM BR SCT100 BKN250
     FM301500 27005KT P6SM VCSH SCT015 BKN040 OVC100
     FM301700 29005KT P6SM VCSH BKN015 OVC040=

USA.gov is the U.S. government's official web portal to all federal, state and local government web resources and services.